sensor_id;sensor_type;location;lat;lon;timestamp;pressure;altitude;pressure_sealevel;temperature;humidity
2036;BME280;23642;42.658;23.350;2023-04-04T00:01:59;40886.72;;;-146.31;100.00
2036;BME280;23642;42.658;23.350;2023-04-04T00:04:26;40771.56;;;-146.31;100.00
2036;BME280;23642;42.658;23.350;2023-04-04T00:06:53;40757.16;;;-146.31;100.00
2036;BME280;23642;42.658;23.350;2023-04-04T00:09:20;40751.00;;;-146.31;100.00
2036;BME280;23642;42.658;23.350;2023-04-04T00:11:48;40693.41;;;-146.31;100.00
2036;BME280;23642;42.658;23.350;2023-04-04T00:14:15;40672.84;;;-146.31;100.00
2036;BME280;23642;42.658;23.350;2023-04-04T00:16:45;40654.34;;;-146.31;100.00
2036;BME280;23642;42.658;23.350;2023-04-04T00:19:11;40658.44;;;-146.31;100.00
2036;BME280;23642;42.658;23.350;2023-04-04T00:21:42;40625.53;;;-146.31;100.00
2036;BME280;23642;42.658;23.350;2023-04-04T00:24:10;40642.00;;;-146.31;100.00
2036;BME280;23642;42.658;23.350;2023-04-04T00:26:38;40592.66;;;-146.31;100.00
2036;BME280;23642;42.658;23.350;2023-04-04T00:29:06;40604.97;;;-146.31;100.00
2036;BME280;23642;42.658;23.350;2023-04-04T00:31:33;40613.22;;;-146.31;100.00
2036;BME280;23642;42.658;23.350;2023-04-04T00:34:00;40635.81;;;-146.31;100.00
2036;BME280;23642;42.658;23.350;2023-04-04T00:36:27;40676.97;;;-146.31;100.00
2036;BME280;23642;42.658;23.350;2023-04-04T00:38:54;40757.16;;;-146.31;100.00
2036;BME280;23642;42.658;23.350;2023-04-04T00:41:21;40833.25;;;-146.31;100.00
2036;BME280;23642;42.658;23.350;2023-04-04T00:43:48;40851.75;;;-146.31;100.00
2036;BME280;23642;42.658;23.350;2023-04-04T00:46:16;40868.22;;;-146.31;100.00
2036;BME280;23642;42.658;23.350;2023-04-04T00:48:44;40921.69;;;-146.31;100.00
2036;BME280;23642;42.658;23.350;2023-04-04T00:51:11;40894.94;;;-146.31;100.00
2036;BME280;23642;42.658;23.350;2023-04-04T00:53:38;40909.34;;;-146.31;100.00
2036;BME280;23642;42.658;23.350;2023-04-04T00:56:08;40948.41;;;-146.31;100.00
2036;BME280;23642;42.658;23.350;2023-04-04T00:58:35;40925.78;;;-146.31;100.00
2036;BME280;23642;42.658;23.350;2023-04-04T01:01:01;40934.03;;;-146.31;100.00
2036;BME280;23642;42.658;23.350;2023-04-04T01:03:30;40975.16;;;-146.31;100.00
2036;BME280;23642;42.658;23.350;2023-04-04T01:06:00;40946.34;;;-146.31;100.00
2036;BME280;23642;42.658;23.350;2023-04-04T01:08:27;40944.31;;;-146.31;100.00
2036;BME280;23642;42.658;23.350;2023-04-04T01:10:56;40905.22;;;-146.31;100.00
2036;BME280;23642;42.658;23.350;2023-04-04T01:13:23;40876.44;;;-146.31;100.00
2036;BME280;23642;42.658;23.350;2023-04-04T01:15:51;40940.19;;;-146.31;100.00
2036;BME280;23642;42.658;23.350;2023-04-04T01:18:19;40946.34;;;-146.31;100.00
2036;BME280;23642;42.658;23.350;2023-04-04T01:20:52;41082.09;;;-146.31;100.00
2036;BME280;23642;42.658;23.350;2023-04-04T01:23:24;41283.66;;;-146.31;100.00
2036;BME280;23642;42.658;23.350;2023-04-04T01:26:03;41390.63;;;-146.31;100.00
2036;BME280;23642;42.658;23.350;2023-04-04T01:28:30;41353.59;;;-146.31;100.00
2036;BME280;23642;42.658;23.350;2023-04-04T01:30:58;41302.16;;;-146.31;100.00
2036;BME280;23642;42.658;23.350;2023-04-04T01:33:28;41271.31;;;-146.31;100.00
2036;BME280;23642;42.658;23.350;2023-04-04T01:36:03;41258.97;;;-146.31;100.00
2036;BME280;23642;42.658;23.350;2023-04-04T01:38:37;41211.66;;;-146.31;100.00
2036;BME280;23642;42.658;23.350;2023-04-04T01:41:09;41119.13;;;-146.31;100.00
2036;BME280;23642;42.658;23.350;2023-04-04T01:43:36;41028.63;;;-146.31;100.00
2036;BME280;23642;42.658;23.350;2023-04-04T01:46:03;41014.22;;;-146.31;100.00
2036;BME280;23642;42.658;23.350;2023-04-04T01:48:30;40958.69;;;-146.31;100.00
2036;BME280;23642;42.658;23.350;2023-04-04T01:50:59;40913.44;;;-146.31;100.00
2036;BME280;23642;42.658;23.350;2023-04-04T01:53:27;40954.59;;;-146.31;100.00
2036;BME280;23642;42.658;23.350;2023-04-04T01:55:53;41123.22;;;-146.31;100.00
2036;BME280;23642;42.658;23.350;2023-04-04T01:58:22;41310.41;;;-146.31;100.00
2036;BME280;23642;42.658;23.350;2023-04-04T02:00:49;41394.72;;;-146.31;100.00
2036;BME280;23642;42.658;23.350;2023-04-04T02:03:16;41386.50;;;-146.31;100.00
2036;BME280;23642;42.658;23.350;2023-04-04T02:05:42;41427.63;;;-146.31;100.00
2036;BME280;23642;42.658;23.350;2023-04-04T02:08:14;41538.72;;;-146.31;100.00
2036;BME280;23642;42.658;23.350;2023-04-04T02:10:40;41775.28;;;-146.31;100.00
2036;BME280;23642;42.658;23.350;2023-04-04T02:13:07;41931.63;;;-146.31;100.00
2036;BME280;23642;42.658;23.350;2023-04-04T02:15:36;42040.66;;;-146.31;100.00
2036;BME280;23642;42.658;23.350;2023-04-04T02:18:03;42028.31;;;-146.31;100.00
2036;BME280;23642;42.658;23.350;2023-04-04T02:20:30;42057.09;;;-146.31;100.00
2036;BME280;23642;42.658;23.350;2023-04-04T02:22:57;42018.00;;;-146.31;100.00
2036;BME280;23642;42.658;23.350;2023-04-04T02:25:24;41966.59;;;-146.31;100.00
2036;BME280;23642;42.658;23.350;2023-04-04T02:27:50;41935.72;;;-146.31;100.00
2036;BME280;23642;42.658;23.350;2023-04-04T02:30:17;41847.28;;;-146.31;100.00
2036;BME280;23642;42.658;23.350;2023-04-04T02:32:46;41802.00;;;-146.31;100.00
2036;BME280;23642;42.658;23.350;2023-04-04T02:35:13;41756.75;;;-146.31;100.00
2036;BME280;23642;42.658;23.350;2023-04-04T02:37:40;41707.38;;;-146.31;100.00
2036;BME280;23642;42.658;23.350;2023-04-04T02:40:08;41781.44;;;-146.31;100.00
2036;BME280;23642;42.658;23.350;2023-04-04T02:42:34;41830.81;;;-146.31;100.00
2036;BME280;23642;42.658;23.350;2023-04-04T02:45:02;41814.34;;;-146.31;100.00
2036;BME280;23642;42.658;23.350;2023-04-04T02:47:29;41814.34;;;-146.31;100.00
2036;BME280;23642;42.658;23.350;2023-04-04T02:49:57;41802.00;;;-146.31;100.00
2036;BME280;23642;42.658;23.350;2023-04-04T02:52:24;41898.69;;;-146.31;100.00
2036;BME280;23642;42.658;23.350;2023-04-04T02:54:51;41900.75;;;-146.31;100.00
2036;BME280;23642;42.658;23.350;2023-04-04T02:57:19;42020.06;;;-146.31;100.00
2036;BME280;23642;42.658;23.350;2023-04-04T02:59:46;42155.84;;;-146.31;100.00
2036;BME280;23642;42.658;23.350;2023-04-04T03:02:13;42246.38;;;-146.31;100.00
2036;BME280;23642;42.658;23.350;2023-04-04T03:04:40;42289.59;;;-146.31;100.00
2036;BME280;23642;42.658;23.350;2023-04-04T03:07:09;42287.53;;;-146.31;100.00
2036;BME280;23642;42.658;23.350;2023-04-04T03:09:37;42201.13;;;-146.31;100.00
2036;BME280;23642;42.658;23.350;2023-04-04T03:12:04;42159.97;;;-146.31;100.00
2036;BME280;23642;42.658;23.350;2023-04-04T03:14:31;42269.00;;;-146.31;100.00
2036;BME280;23642;42.658;23.350;2023-04-04T03:16:57;42289.59;;;-146.31;100.00
2036;BME280;23642;42.658;23.350;2023-04-04T03:19:24;42324.56;;;-146.31;100.00
2036;BME280;23642;42.658;23.350;2023-04-04T03:21:51;42262.84;;;-146.31;100.00
2036;BME280;23642;42.658;23.350;2023-04-04T03:24:20;42223.75;;;-146.31;100.00
2036;BME280;23642;42.658;23.350;2023-04-04T03:26:46;42289.59;;;-146.31;100.00
2036;BME280;23642;42.658;23.350;2023-04-04T03:29:13;42291.63;;;-146.31;100.00
2036;BME280;23642;42.658;23.350;2023-04-04T03:31:40;42310.16;;;-146.31;100.00
2036;BME280;23642;42.658;23.350;2023-04-04T03:34:09;42581.75;;;-146.31;100.00
2036;BME280;23642;42.658;23.350;2023-04-04T03:36:39;42719.59;;;-146.31;100.00
2036;BME280;23642;42.658;23.350;2023-04-04T03:39:05;42686.69;;;-146.31;100.00
2036;BME280;23642;42.658;23.350;2023-04-04T03:41:34;42649.66;;;-146.31;100.00
2036;BME280;23642;42.658;23.350;2023-04-04T03:44:04;42528.25;;;-146.31;100.00
2036;BME280;23642;42.658;23.350;2023-04-04T03:46:30;42443.88;;;-146.31;100.00
2036;BME280;23642;42.658;23.350;2023-04-04T03:48:58;42378.06;;;-146.31;100.00
2036;BME280;23642;42.658;23.350;2023-04-04T03:51:25;42258.72;;;-146.31;100.00
2036;BME280;23642;42.658;23.350;2023-04-04T03:53:53;42215.50;;;-146.31;100.00
2036;BME280;23642;42.658;23.350;2023-04-04T03:56:19;42168.19;;;-146.31;100.00
2036;BME280;23642;42.658;23.350;2023-04-04T03:58:50;42180.53;;;-146.31;100.00
2036;BME280;23642;42.658;23.350;2023-04-04T04:01:17;42217.56;;;-146.31;100.00
2036;BME280;23642;42.658;23.350;2023-04-04T04:03:48;42209.34;;;-146.31;100.00
2036;BME280;23642;42.658;23.350;2023-04-04T04:06:15;42184.66;;;-146.31;100.00
2036;BME280;23642;42.658;23.350;2023-04-04T04:08:43;42269.00;;;-146.31;100.00
2036;BME280;23642;42.658;23.350;2023-04-04T04:11:10;42334.84;;;-146.31;100.00
2036;BME280;23642;42.658;23.350;2023-04-04T04:13:37;42513.84;;;-146.31;100.00
2036;BME280;23642;42.658;23.350;2023-04-04T04:16:06;42524.13;;;-146.31;100.00
2036;BME280;23642;42.658;23.350;2023-04-04T04:18:33;42480.94;;;-146.31;100.00
2036;BME280;23642;42.658;23.350;2023-04-04T04:21:00;42382.16;;;-146.31;100.00
2036;BME280;23642;42.658;23.350;2023-04-04T04:23:28;42336.91;;;-146.31;100.00
2036;BME280;23642;42.658;23.350;2023-04-04T04:25:58;42452.13;;;-146.31;100.00
2036;BME280;23642;42.658;23.350;2023-04-04T04:28:26;42530.31;;;-146.31;100.00
2036;BME280;23642;42.658;23.350;2023-04-04T04:30:53;42624.97;;;-146.31;100.00
2036;BME280;23642;42.658;23.350;2023-04-04T04:33:28;42672.28;;;-146.31;100.00
2036;BME280;23642;42.658;23.350;2023-04-04T04:35:58;42816.31;;;-146.31;100.00
2036;BME280;23642;42.658;23.350;2023-04-04T04:38:26;42818.38;;;-146.31;100.00
2036;BME280;23642;42.658;23.350;2023-04-04T04:40:53;42904.81;;;-146.31;100.00
2036;BME280;23642;42.658;23.350;2023-04-04T04:43:20;42871.88;;;-146.31;100.00
2036;BME280;23642;42.658;23.350;2023-04-04T04:45:47;42789.56;;;-146.31;100.00
2036;BME280;23642;42.658;23.350;2023-04-04T04:48:14;42731.97;;;-146.31;100.00
2036;BME280;23642;42.658;23.350;2023-04-04T04:50:44;42725.78;;;-146.31;100.00
2036;BME280;23642;42.658;23.350;2023-04-04T04:53:11;42643.47;;;-146.31;100.00
2036;BME280;23642;42.658;23.350;2023-04-04T04:55:38;42742.25;;;-146.31;100.00
2036;BME280;23642;42.658;23.350;2023-04-04T04:58:07;42672.28;;;-146.31;100.00
2036;BME280;23642;42.658;23.350;2023-04-04T05:00:35;42744.31;;;-146.31;100.00
2036;BME280;23642;42.658;23.350;2023-04-04T05:03:02;42910.97;;;-146.31;100.00
2036;BME280;23642;42.658;23.350;2023-04-04T05:05:31;43102.34;;;-146.31;100.00
2036;BME280;23642;42.658;23.350;2023-04-04T05:08:01;43227.91;;;-146.31;100.00
2036;BME280;23642;42.658;23.350;2023-04-04T05:10:31;43429.59;;;-146.31;100.00
2036;BME280;23642;42.658;23.350;2023-04-04T05:12:58;43592.19;;;-146.31;100.00
2036;BME280;23642;42.658;23.350;2023-04-04T05:15:25;43658.03;;;-146.31;100.00
2036;BME280;23642;42.658;23.350;2023-04-04T05:17:53;43668.34;;;-146.31;100.00
2036;BME280;23642;42.658;23.350;2023-04-04T05:20:20;43754.78;;;-146.31;100.00
2036;BME280;23642;42.658;23.350;2023-04-04T05:22:47;43814.47;;;-146.31;100.00
2036;BME280;23642;42.658;23.350;2023-04-04T05:25:16;44082.06;;;-146.31;100.00
2036;BME280;23642;42.658;23.350;2023-04-04T05:27:46;44277.63;;;-146.31;100.00
2036;BME280;23642;42.658;23.350;2023-04-04T05:30:14;44273.50;;;-146.31;100.00
2036;BME280;23642;42.658;23.350;2023-04-04T05:32:43;44390.84;;;-146.31;100.00
2036;BME280;23642;42.658;23.350;2023-04-04T05:35:11;44557.63;;;-146.31;100.00
2036;BME280;23642;42.658;23.350;2023-04-04T05:37:41;44771.75;;;-146.31;100.00
2036;BME280;23642;42.658;23.350;2023-04-04T05:40:09;44814.97;;;-146.31;100.00
2036;BME280;23642;42.658;23.350;2023-04-04T05:42:37;44876.75;;;-146.31;100.00
2036;BME280;23642;42.658;23.350;2023-04-04T05:45:06;44992.06;;;-146.31;100.00
2036;BME280;23642;42.658;23.350;2023-04-04T05:47:33;45138.25;;;-146.31;100.00
2036;BME280;23642;42.658;23.350;2023-04-04T05:50:02;45206.19;;;-146.31;100.00
2036;BME280;23642;42.658;23.350;2023-04-04T05:52:30;45249.44;;;-146.31;100.00
2036;BME280;23642;42.658;23.350;2023-04-04T05:54:57;45311.22;;;-146.31;100.00
2036;BME280;23642;42.658;23.350;2023-04-04T05:57:25;45393.59;;;-146.31;100.00
2036;BME280;23642;42.658;23.350;2023-04-04T05:59:53;45519.22;;;-146.31;100.00
2036;BME280;23642;42.658;23.350;2023-04-04T06:02:20;45686.03;;;-146.31;100.00
2036;BME280;23642;42.658;23.350;2023-04-04T06:04:47;45828.13;;;-146.31;99.73
2036;BME280;23642;42.658;23.350;2023-04-04T06:07:14;45891.97;;;-146.31;99.73
2036;BME280;23642;42.658;23.350;2023-04-04T06:09:40;46007.31;;;-146.31;99.33
2036;BME280;23642;42.658;23.350;2023-04-04T06:12:09;46122.66;;;-146.31;98.70
2036;BME280;23642;42.658;23.350;2023-04-04T06:14:36;46172.09;;;-146.31;98.86
2036;BME280;23642;42.658;23.350;2023-04-04T06:17:05;46293.63;;;-146.31;98.53
2036;BME280;23642;42.658;23.350;2023-04-04T06:19:33;46260.66;;;-146.31;98.71
2036;BME280;23642;42.658;23.350;2023-04-04T06:22:00;46303.94;;;-146.31;99.00
2036;BME280;23642;42.658;23.350;2023-04-04T06:24:30;46493.44;;;-146.31;97.51
2036;BME280;23642;42.658;23.350;2023-04-04T06:27:01;46608.81;;;-146.31;97.31
2036;BME280;23642;42.658;23.350;2023-04-04T06:29:31;46627.34;;;-146.31;97.09
2036;BME280;23642;42.658;23.350;2023-04-04T06:32:02;46779.78;;;-146.31;96.53
2036;BME280;23642;42.658;23.350;2023-04-04T06:34:31;46882.81;;;-146.31;96.75
2036;BME280;23642;42.658;23.350;2023-04-04T06:36:59;46882.81;;;-146.31;97.39
2036;BME280;23642;42.658;23.350;2023-04-04T06:39:30;46767.44;;;-146.31;97.52
2036;BME280;23642;42.658;23.350;2023-04-04T06:41:58;46808.63;;;-146.31;97.08
2036;BME280;23642;42.658;23.350;2023-04-04T06:44:28;46858.06;;;-146.31;97.11
2036;BME280;23642;42.658;23.350;2023-04-04T06:46:55;46853.97;;;-146.31;96.83
2036;BME280;23642;42.658;23.350;2023-04-04T06:49:22;47055.88;;;-146.31;96.82
2036;BME280;23642;42.658;23.350;2023-04-04T06:51:50;47002.28;;;-146.31;97.27
2036;BME280;23642;42.658;23.350;2023-04-04T06:54:18;46882.81;;;-146.31;98.39
2036;BME280;23642;42.658;23.350;2023-04-04T06:56:48;47010.53;;;-146.31;97.29
2036;BME280;23642;42.658;23.350;2023-04-04T06:59:15;46899.28;;;-146.31;98.34
2036;BME280;23642;42.658;23.350;2023-04-04T07:01:44;46934.31;;;-146.31;97.81
2036;BME280;23642;42.658;23.350;2023-04-04T07:04:12;47138.28;;;-146.31;96.20
2036;BME280;23642;42.658;23.350;2023-04-04T07:06:39;47309.28;;;-146.31;95.78
2036;BME280;23642;42.658;23.350;2023-04-04T07:09:10;47352.56;;;-146.31;95.87
2036;BME280;23642;42.658;23.350;2023-04-04T07:11:37;47367.00;;;-146.31;95.65
2036;BME280;23642;42.658;23.350;2023-04-04T07:14:04;47360.81;;;-146.31;95.86
2036;BME280;23642;42.658;23.350;2023-04-04T07:16:31;47278.38;;;-146.31;96.39
2036;BME280;23642;42.658;23.350;2023-04-04T07:18:58;47323.72;;;-146.31;96.33
2036;BME280;23642;42.658;23.350;2023-04-04T07:21:25;47377.28;;;-146.31;95.96
2036;BME280;23642;42.658;23.350;2023-04-04T07:23:53;47377.28;;;-146.31;95.80
2036;BME280;23642;42.658;23.350;2023-04-04T07:26:21;47531.84;;;-146.31;95.04
2036;BME280;23642;42.658;23.350;2023-04-04T07:28:51;47527.72;;;-146.31;95.32
2036;BME280;23642;42.658;23.350;2023-04-04T07:31:18;47647.22;;;-146.31;94.22
2036;BME280;23642;42.658;23.350;2023-04-04T07:33:45;47626.63;;;-146.31;94.77
2036;BME280;23642;42.658;23.350;2023-04-04T07:36:12;47674.03;;;-146.31;93.99
2036;BME280;23642;42.658;23.350;2023-04-04T07:38:39;47799.72;;;-146.31;93.41
2036;BME280;23642;42.658;23.350;2023-04-04T07:41:09;47830.63;;;-146.31;93.61
2036;BME280;23642;42.658;23.350;2023-04-04T07:43:39;47851.25;;;-146.31;93.67
2036;BME280;23642;42.658;23.350;2023-04-04T07:46:06;47865.66;;;-146.31;93.16
2036;BME280;23642;42.658;23.350;2023-04-04T07:48:33;47983.13;;;-146.31;92.84
2036;BME280;23642;42.658;23.350;2023-04-04T07:51:02;47981.06;;;-146.31;92.33
2036;BME280;23642;42.658;23.350;2023-04-04T07:53:33;47989.31;;;-146.31;93.02
2036;BME280;23642;42.658;23.350;2023-04-04T07:56:00;48020.22;;;-146.31;92.99
2036;BME280;23642;42.658;23.350;2023-04-04T07:58:31;48026.41;;;-146.31;93.04
2036;BME280;23642;42.658;23.350;2023-04-04T08:00:59;47991.38;;;-146.31;93.36
2036;BME280;23642;42.658;23.350;2023-04-04T08:03:26;47979.03;;;-146.31;93.14
2036;BME280;23642;42.658;23.350;2023-04-04T08:05:53;48003.75;;;-146.31;93.31
2036;BME280;23642;42.658;23.350;2023-04-04T08:08:31;47960.47;;;-146.31;92.99
2036;BME280;23642;42.658;23.350;2023-04-04T08:10:58;48115.03;;;-146.31;92.37
2036;BME280;23642;42.658;23.350;2023-04-04T08:13:27;48100.63;;;-146.31;92.50
2036;BME280;23642;42.658;23.350;2023-04-04T08:15:56;48187.16;;;-146.31;91.99
2036;BME280;23642;42.658;23.350;2023-04-04T08:18:24;48195.41;;;-146.31;91.62
2036;BME280;23642;42.658;23.350;2023-04-04T08:20:53;48279.91;;;-146.31;91.72
2036;BME280;23642;42.658;23.350;2023-04-04T08:23:28;48269.63;;;-146.31;91.31
2036;BME280;23642;42.658;23.350;2023-04-04T08:25:55;48300.53;;;-146.31;91.58
2036;BME280;23642;42.658;23.350;2023-04-04T08:28:24;48374.72;;;-146.31;90.61
2036;BME280;23642;42.658;23.350;2023-04-04T08:30:53;48329.38;;;-146.31;91.56
2036;BME280;23642;42.658;23.350;2023-04-04T08:33:20;48300.53;;;-146.31;91.69
2036;BME280;23642;42.658;23.350;2023-04-04T08:35:50;48279.91;;;-146.31;91.64
2036;BME280;23642;42.658;23.350;2023-04-04T08:38:17;48298.47;;;-146.31;91.96
2036;BME280;23642;42.658;23.350;2023-04-04T08:40:45;48279.91;;;-146.31;92.56
2036;BME280;23642;42.658;23.350;2023-04-04T08:43:13;48181.00;;;-146.31;92.97
2036;BME280;23642;42.658;23.350;2023-04-04T08:45:42;48197.47;;;-146.31;92.48
2036;BME280;23642;42.658;23.350;2023-04-04T08:48:10;48220.16;;;-146.31;92.54
2036;BME280;23642;42.658;23.350;2023-04-04T08:50:40;48156.25;;;-146.31;93.49
2036;BME280;23642;42.658;23.350;2023-04-04T08:53:10;48203.66;;;-146.31;92.63
2036;BME280;23642;42.658;23.350;2023-04-04T08:55:38;48191.28;;;-146.31;93.06
2036;BME280;23642;42.658;23.350;2023-04-04T08:58:07;48205.72;;;-146.31;93.20
2036;BME280;23642;42.658;23.350;2023-04-04T09:00:33;48288.16;;;-146.31;92.14
2036;BME280;23642;42.658;23.350;2023-04-04T09:03:05;48296.41;;;-146.31;92.85
2036;BME280;23642;42.658;23.350;2023-04-04T09:05:34;48281.97;;;-146.31;92.75
2036;BME280;23642;42.658;23.350;2023-04-04T09:08:04;48327.31;;;-146.31;92.99
2036;BME280;23642;42.658;23.350;2023-04-04T09:10:32;48308.78;;;-146.31;92.72
2036;BME280;23642;42.658;23.350;2023-04-04T09:13:02;48335.56;;;-146.31;92.38
2036;BME280;23642;42.658;23.350;2023-04-04T09:15:30;48333.50;;;-146.31;92.98
2036;BME280;23642;42.658;23.350;2023-04-04T09:17:58;48352.06;;;-146.31;92.72
2036;BME280;23642;42.658;23.350;2023-04-04T09:20:38;48469.53;;;-146.31;91.14
2036;BME280;23642;42.658;23.350;2023-04-04T09:23:10;48519.00;;;-146.31;91.06
2036;BME280;23642;42.658;23.350;2023-04-04T09:25:43;48514.88;;;-146.31;90.96
2036;BME280;23642;42.658;23.350;2023-04-04T09:28:14;48535.50;;;-146.31;90.56
2036;BME280;23642;42.658;23.350;2023-04-04T09:30:41;48564.34;;;-146.31;90.15
2036;BME280;23642;42.658;23.350;2023-04-04T09:33:10;48605.59;;;-146.31;90.02
2036;BME280;23642;42.658;23.350;2023-04-04T09:35:38;48650.94;;;-146.31;89.34
2036;BME280;23642;42.658;23.350;2023-04-04T09:38:07;48681.84;;;-146.31;90.06
2036;BME280;23642;42.658;23.350;2023-04-04T09:40:34;48700.41;;;-146.31;89.48
2036;BME280;23642;42.658;23.350;2023-04-04T09:43:06;48729.25;;;-146.31;89.62
2036;BME280;23642;42.658;23.350;2023-04-04T09:45:36;48774.63;;;-146.31;89.29
2036;BME280;23642;42.658;23.350;2023-04-04T09:48:07;48803.47;;;-146.31;89.41
2036;BME280;23642;42.658;23.350;2023-04-04T09:50:36;48836.47;;;-146.31;88.68
2036;BME280;23642;42.658;23.350;2023-04-04T09:53:06;48912.72;;;-146.31;88.62
2036;BME280;23642;42.658;23.350;2023-04-04T09:55:36;49030.22;;;-146.31;87.47
2036;BME280;23642;42.658;23.350;2023-04-04T09:58:13;49254.94;;;-146.31;85.76
2036;BME280;23642;42.658;23.350;2023-04-04T10:00:40;49553.91;;;-146.31;85.05
2036;BME280;23642;42.658;23.350;2023-04-04T10:03:11;49865.25;;;-146.31;85.46
2036;BME280;23642;42.658;23.350;2023-04-04T10:05:41;50102.41;;;-146.31;85.89
2036;BME280;23642;42.658;23.350;2023-04-04T10:08:14;50075.59;;;-146.31;85.42
2036;BME280;23642;42.658;23.350;2023-04-04T10:10:49;49677.63;;;-146.31;85.19
2036;BME280;23642;42.658;23.350;2023-04-04T10:13:28;49877.63;;;-146.31;85.19
2036;BME280;23642;42.658;23.350;2023-04-04T10:16:03;50131.28;;;-146.31;85.36
2036;BME280;23642;42.658;23.350;2023-04-04T10:18:31;50265.31;;;-146.31;85.00
2036;BME280;23642;42.658;23.350;2023-04-04T10:20:59;49993.09;;;-146.31;86.56
2036;BME280;23642;42.658;23.350;2023-04-04T10:23:27;49667.31;;;-146.31;87.32
2036;BME280;23642;42.658;23.350;2023-04-04T10:26:01;49384.84;;;-146.31;88.16
2036;BME280;23642;42.658;23.350;2023-04-04T10:28:30;49285.88;;;-146.31;87.24
2036;BME280;23642;42.658;23.350;2023-04-04T10:31:04;49329.16;;;-146.31;86.94
2036;BME280;23642;42.658;23.350;2023-04-04T10:33:38;49269.38;;;-146.31;88.24
2036;BME280;23642;42.658;23.350;2023-04-04T10:36:10;49275.56;;;-146.31;88.87
2036;BME280;23642;42.658;23.350;2023-04-04T10:38:43;49265.25;;;-146.31;88.26
2036;BME280;23642;42.658;23.350;2023-04-04T10:41:11;49265.25;;;-146.31;88.52
2036;BME280;23642;42.658;23.350;2023-04-04T10:43:41;49254.94;;;-146.31;88.86
2036;BME280;23642;42.658;23.350;2023-04-04T10:46:14;49254.94;;;-146.31;87.76
2036;BME280;23642;42.658;23.350;2023-04-04T10:48:43;49343.59;;;-146.31;86.81
2036;BME280;23642;42.658;23.350;2023-04-04T10:51:11;49393.09;;;-146.31;87.07
2036;BME280;23642;42.658;23.350;2023-04-04T10:53:40;49355.97;;;-146.31;86.18
2036;BME280;23642;42.658;23.350;2023-04-04T10:56:07;49339.47;;;-146.31;86.25
2036;BME280;23642;42.658;23.350;2023-04-04T10:58:38;49376.59;;;-146.31;86.37
2036;BME280;23642;42.658;23.350;2023-04-04T11:01:07;49384.84;;;-146.31;86.38
2036;BME280;23642;42.658;23.350;2023-04-04T11:07:12;49471.44;;;-146.31;84.87
2036;BME280;23642;42.658;23.350;2023-04-04T11:09:47;49469.38;;;-146.31;84.84
2036;BME280;23642;42.658;23.350;2023-04-04T11:12:14;49471.44;;;-146.31;84.92
2036;BME280;23642;42.658;23.350;2023-04-04T11:14:54;49512.66;;;-146.31;84.45
2036;BME280;23642;42.658;23.350;2023-04-04T11:17:54;49525.03;;;-146.31;84.54
2036;BME280;23642;42.658;23.350;2023-04-04T11:20:23;49520.91;;;-146.31;84.44
2036;BME280;23642;42.658;23.350;2023-04-04T11:22:50;49504.41;;;-146.31;84.39
2036;BME280;23642;42.658;23.350;2023-04-04T11:25:30;49522.97;;;-146.31;84.03
2036;BME280;23642;42.658;23.350;2023-04-04T11:27:58;49479.69;;;-146.31;84.47
2036;BME280;23642;42.658;23.350;2023-04-04T11:30:25;49560.09;;;-146.31;84.57
2036;BME280;23642;42.658;23.350;2023-04-04T11:32:56;49576.59;;;-146.31;85.14
2036;BME280;23642;42.658;23.350;2023-04-04T11:35:26;49574.53;;;-146.31;85.05
2036;BME280;23642;42.658;23.350;2023-04-04T11:38:02;49547.72;;;-146.31;85.69
2036;BME280;23642;42.658;23.350;2023-04-04T11:40:39;49527.09;;;-146.31;86.22
2036;BME280;23642;42.658;23.350;2023-04-04T11:43:09;49522.97;;;-146.31;85.87
2036;BME280;23642;42.658;23.350;2023-04-04T11:45:38;49504.41;;;-146.31;85.60
2036;BME280;23642;42.658;23.350;2023-04-04T11:48:24;49537.41;;;-146.31;85.51
2036;BME280;23642;42.658;23.350;2023-04-04T11:50:52;49541.53;;;-146.31;85.72
2036;BME280;23642;42.658;23.350;2023-04-04T11:53:22;49516.78;;;-146.31;86.64
2036;BME280;23642;42.658;23.350;2023-04-04T11:55:53;49506.47;;;-146.31;87.68
2036;BME280;23642;42.658;23.350;2023-04-04T11:58:21;49496.16;;;-146.31;88.32
2036;BME280;23642;42.658;23.350;2023-04-04T12:00:50;49442.56;;;-146.31;88.46
2036;BME280;23642;42.658;23.350;2023-04-04T12:03:33;49457.00;;;-146.31;88.41
2036;BME280;23642;42.658;23.350;2023-04-04T12:06:00;49417.81;;;-146.31;88.52
2036;BME280;23642;42.658;23.350;2023-04-04T12:08:27;49459.06;;;-146.31;88.69
2036;BME280;23642;42.658;23.350;2023-04-04T12:10:54;49419.88;;;-146.31;88.47
2036;BME280;23642;42.658;23.350;2023-04-04T12:13:29;49409.56;;;-146.31;88.07
2036;BME280;23642;42.658;23.350;2023-04-04T12:16:11;49448.75;;;-146.31;87.94
2036;BME280;23642;42.658;23.350;2023-04-04T12:18:45;49469.38;;;-146.31;87.79
2036;BME280;23642;42.658;23.350;2023-04-04T12:21:13;49496.16;;;-146.31;88.20
2036;BME280;23642;42.658;23.350;2023-04-04T12:23:47;49444.63;;;-146.31;88.58
2036;BME280;23642;42.658;23.350;2023-04-04T12:26:14;49461.13;;;-146.31;88.44
2036;BME280;23642;42.658;23.350;2023-04-04T12:28:43;49409.56;;;-146.31;88.52
2036;BME280;23642;42.658;23.350;2023-04-04T12:31:12;49401.34;;;-146.31;88.20
2036;BME280;23642;42.658;23.350;2023-04-04T12:33:45;49432.25;;;-146.31;88.52
2036;BME280;23642;42.658;23.350;2023-04-04T12:36:12;49376.59;;;-146.31;89.44
2036;BME280;23642;42.658;23.350;2023-04-04T12:38:54;49335.34;;;-146.31;90.52
2036;BME280;23642;42.658;23.350;2023-04-04T12:41:33;49304.44;;;-146.31;91.14
2036;BME280;23642;42.658;23.350;2023-04-04T12:44:01;49283.81;;;-146.31;90.17
2036;BME280;23642;42.658;23.350;2023-04-04T12:46:34;49234.34;;;-146.31;92.20
2036;BME280;23642;42.658;23.350;2023-04-04T12:49:12;49236.41;;;-146.31;91.28